sensor_id;sensor_type;location;lat;lon;timestamp;P1;durP1;ratioP1;P2;durP2;ratioP2
48789;SDS011;41718;51.980;5.734;2024-03-07T00:01:33;36.45;;;18.60;;
48789;SDS011;41718;51.980;5.734;2024-03-07T00:06:43;35.20;;;18.67;;
48789;SDS011;41718;51.980;5.734;2024-03-07T00:11:45;41.05;;;19.55;;
48789;SDS011;41718;51.980;5.734;2024-03-07T00:16:50;47.55;;;21.88;;
48789;SDS011;41718;51.980;5.734;2024-03-07T00:21:58;36.55;;;20.85;;
48789;SDS011;41718;51.980;5.734;2024-03-07T00:27:00;47.28;;;20.00;;
48789;SDS011;41718;51.980;5.734;2024-03-07T00:32:03;48.15;;;23.30;;
48789;SDS011;41718;51.980;5.734;2024-03-07T00:37:05;42.78;;;20.48;;
48789;SDS011;41718;51.980;5.734;2024-03-07T00:42:08;46.83;;;20.58;;
48789;SDS011;41718;51.980;5.734;2024-03-07T00:47:11;45.05;;;20.10;;
48789;SDS011;41718;51.980;5.734;2024-03-07T00:52:13;46.10;;;21.30;;
48789;SDS011;41718;51.980;5.734;2024-03-07T00:57:17;49.20;;;22.13;;
48789;SDS011;41718;51.980;5.734;2024-03-07T01:02:19;38.85;;;21.80;;
48789;SDS011;41718;51.980;5.734;2024-03-07T01:07:34;38.20;;;22.02;;
48789;SDS011;41718;51.980;5.734;2024-03-07T01:12:36;48.42;;;21.38;;
48789;SDS011;41718;51.980;5.734;2024-03-07T01:17:38;47.28;;;21.80;;
48789;SDS011;41718;51.980;5.734;2024-03-07T01:22:40;34.50;;;17.80;;
48789;SDS011;41718;51.980;5.734;2024-03-07T01:27:42;35.35;;;17.02;;
48789;SDS011;41718;51.980;5.734;2024-03-07T01:32:44;29.20;;;16.75;;
48789;SDS011;41718;51.980;5.734;2024-03-07T01:37:46;32.78;;;16.42;;
48789;SDS011;41718;51.980;5.734;2024-03-07T01:42:49;32.33;;;16.23;;
48789;SDS011;41718;51.980;5.734;2024-03-07T01:47:51;32.22;;;16.27;;
48789;SDS011;41718;51.980;5.734;2024-03-07T01:52:53;31.67;;;17.50;;
48789;SDS011;41718;51.980;5.734;2024-03-07T01:57:57;38.08;;;18.73;;
48789;SDS011;41718;51.980;5.734;2024-03-07T02:03:01;36.42;;;17.60;;
48789;SDS011;41718;51.980;5.734;2024-03-07T02:08:03;43.03;;;20.42;;
48789;SDS011;41718;51.980;5.734;2024-03-07T02:13:05;38.63;;;19.23;;
48789;SDS011;41718;51.980;5.734;2024-03-07T02:18:07;43.03;;;19.60;;
48789;SDS011;41718;51.980;5.734;2024-03-07T02:23:10;42.72;;;19.85;;
48789;SDS011;41718;51.980;5.734;2024-03-07T02:28:13;44.47;;;20.13;;
48789;SDS011;41718;51.980;5.734;2024-03-07T02:33:16;41.35;;;19.63;;
48789;SDS011;41718;51.980;5.734;2024-03-07T02:38:18;40.90;;;18.48;;
48789;SDS011;41718;51.980;5.734;2024-03-07T02:43:21;39.80;;;18.58;;
48789;SDS011;41718;51.980;5.734;2024-03-07T02:48:23;32.55;;;16.40;;
48789;SDS011;41718;51.980;5.734;2024-03-07T02:53:25;33.70;;;14.57;;
48789;SDS011;41718;51.980;5.734;2024-03-07T02:58:27;39.53;;;18.70;;
48789;SDS011;41718;51.980;5.734;2024-03-07T03:03:29;36.55;;;18.08;;
48789;SDS011;41718;51.980;5.734;2024-03-07T03:08:32;44.90;;;18.10;;
48789;SDS011;41718;51.980;5.734;2024-03-07T03:13:39;46.42;;;20.33;;
48789;SDS011;41718;51.980;5.734;2024-03-07T03:18:42;40.77;;;19.70;;
48789;SDS011;41718;51.980;5.734;2024-03-07T03:23:44;37.88;;;19.17;;
48789;SDS011;41718;51.980;5.734;2024-03-07T03:28:46;42.53;;;19.27;;
48789;SDS011;41718;51.980;5.734;2024-03-07T03:33:49;49.45;;;22.27;;
48789;SDS011;41718;51.980;5.734;2024-03-07T03:38:52;55.47;;;24.70;;
48789;SDS011;41718;51.980;5.734;2024-03-07T03:43:54;50.85;;;23.70;;
48789;SDS011;41718;51.980;5.734;2024-03-07T03:48:56;58.53;;;23.55;;
48789;SDS011;41718;51.980;5.734;2024-03-07T03:53:59;48.45;;;23.38;;
48789;SDS011;41718;51.980;5.734;2024-03-07T03:59:01;51.75;;;23.55;;
48789;SDS011;41718;51.980;5.734;2024-03-07T04:04:03;43.15;;;20.52;;
48789;SDS011;41718;51.980;5.734;2024-03-07T04:09:06;53.85;;;23.88;;
48789;SDS011;41718;51.980;5.734;2024-03-07T04:14:08;49.28;;;22.40;;
48789;SDS011;41718;51.980;5.734;2024-03-07T04:19:10;45.97;;;24.08;;
48789;SDS011;41718;51.980;5.734;2024-03-07T04:24:12;58.60;;;24.98;;
48789;SDS011;41718;51.980;5.734;2024-03-07T04:29:14;49.10;;;22.98;;
48789;SDS011;41718;51.980;5.734;2024-03-07T04:34:17;48.15;;;23.20;;
48789;SDS011;41718;51.980;5.734;2024-03-07T04:39:20;52.50;;;24.92;;
48789;SDS011;41718;51.980;5.734;2024-03-07T04:44:34;45.83;;;22.88;;
48789;SDS011;41718;51.980;5.734;2024-03-07T04:49:37;42.20;;;21.20;;
48789;SDS011;41718;51.980;5.734;2024-03-07T04:54:41;46.78;;;22.73;;
48789;SDS011;41718;51.980;5.734;2024-03-07T04:59:43;47.05;;;22.52;;
48789;SDS011;41718;51.980;5.734;2024-03-07T05:04:45;50.92;;;21.90;;
48789;SDS011;41718;51.980;5.734;2024-03-07T05:09:51;50.08;;;21.95;;
48789;SDS011;41718;51.980;5.734;2024-03-07T05:14:53;50.35;;;22.83;;
48789;SDS011;41718;51.980;5.734;2024-03-07T05:19:55;48.15;;;22.38;;
48789;SDS011;41718;51.980;5.734;2024-03-07T05:24:57;53.45;;;24.58;;
48789;SDS011;41718;51.980;5.734;2024-03-07T05:30:00;46.38;;;22.85;;
48789;SDS011;41718;51.980;5.734;2024-03-07T05:35:05;44.88;;;21.02;;
48789;SDS011;41718;51.980;5.734;2024-03-07T05:40:08;47.83;;;21.88;;
48789;SDS011;41718;51.980;5.734;2024-03-07T05:45:11;50.22;;;22.63;;
48789;SDS011;41718;51.980;5.734;2024-03-07T05:50:13;48.72;;;22.60;;
48789;SDS011;41718;51.980;5.734;2024-03-07T05:55:15;48.45;;;22.33;;
48789;SDS011;41718;51.980;5.734;2024-03-07T06:00:19;51.15;;;22.30;;
48789;SDS011;41718;51.980;5.734;2024-03-07T06:05:29;54.28;;;23.83;;
48789;SDS011;41718;51.980;5.734;2024-03-07T06:10:31;56.33;;;25.80;;
48789;SDS011;41718;51.980;5.734;2024-03-07T06:15:36;52.97;;;23.75;;
48789;SDS011;41718;51.980;5.734;2024-03-07T06:20:43;51.72;;;22.48;;
48789;SDS011;41718;51.980;5.734;2024-03-07T06:25:47;56.63;;;25.92;;
48789;SDS011;41718;51.980;5.734;2024-03-07T06:30:58;52.78;;;23.42;;
48789;SDS011;41718;51.980;5.734;2024-03-07T06:36:08;47.75;;;21.83;;
48789;SDS011;41718;51.980;5.734;2024-03-07T06:41:11;50.92;;;24.48;;
48789;SDS011;41718;51.980;5.734;2024-03-07T06:46:19;53.33;;;24.80;;
48789;SDS011;41718;51.980;5.734;2024-03-07T06:51:23;46.22;;;24.65;;
48789;SDS011;41718;51.980;5.734;2024-03-07T06:56:26;47.20;;;23.33;;
48789;SDS011;41718;51.980;5.734;2024-03-07T07:01:29;68.00;;;28.05;;
48789;SDS011;41718;51.980;5.734;2024-03-07T07:06:32;50.97;;;24.30;;
48789;SDS011;41718;51.980;5.734;2024-03-07T07:11:36;71.85;;;30.80;;
48789;SDS011;41718;51.980;5.734;2024-03-07T07:16:41;50.47;;;27.15;;
48789;SDS011;41718;51.980;5.734;2024-03-07T07:21:47;53.03;;;27.67;;
48789;SDS011;41718;51.980;5.734;2024-03-07T07:26:55;67.95;;;30.02;;
48789;SDS011;41718;51.980;5.734;2024-03-07T07:32:01;62.53;;;27.70;;
48789;SDS011;41718;51.980;5.734;2024-03-07T07:37:05;59.42;;;26.38;;
48789;SDS011;41718;51.980;5.734;2024-03-07T07:42:08;68.07;;;29.60;;
48789;SDS011;41718;51.980;5.734;2024-03-07T07:47:12;59.28;;;28.52;;
48789;SDS011;41718;51.980;5.734;2024-03-07T07:52:16;70.72;;;32.42;;
48789;SDS011;41718;51.980;5.734;2024-03-07T07:57:20;80.32;;;38.00;;
48789;SDS011;41718;51.980;5.734;2024-03-07T08:02:27;80.18;;;32.33;;
48789;SDS011;41718;51.980;5.734;2024-03-07T08:07:31;72.20;;;33.80;;
48789;SDS011;41718;51.980;5.734;2024-03-07T08:12:34;74.47;;;31.77;;
48789;SDS011;41718;51.980;5.734;2024-03-07T08:17:46;75.70;;;33.83;;
48789;SDS011;41718;51.980;5.734;2024-03-07T08:22:50;89.53;;;38.28;;
48789;SDS011;41718;51.980;5.734;2024-03-07T08:27:56;80.10;;;34.55;;
48789;SDS011;41718;51.980;5.734;2024-03-07T08:32:59;89.20;;;33.53;;
48789;SDS011;41718;51.980;5.734;2024-03-07T08:38:04;91.65;;;35.58;;
48789;SDS011;41718;51.980;5.734;2024-03-07T08:43:06;83.88;;;34.35;;
48789;SDS011;41718;51.980;5.734;2024-03-07T08:48:09;75.68;;;32.78;;
48789;SDS011;41718;51.980;5.734;2024-03-07T08:53:11;79.07;;;34.67;;
48789;SDS011;41718;51.980;5.734;2024-03-07T08:58:13;70.57;;;30.42;;
48789;SDS011;41718;51.980;5.734;2024-03-07T09:03:15;84.45;;;33.28;;
48789;SDS011;41718;51.980;5.734;2024-03-07T09:08:19;77.63;;;34.28;;
48789;SDS011;41718;51.980;5.734;2024-03-07T09:13:21;75.38;;;32.70;;
48789;SDS011;41718;51.980;5.734;2024-03-07T09:18:23;68.32;;;29.40;;
48789;SDS011;41718;51.980;5.734;2024-03-07T09:23:26;81.88;;;33.13;;
48789;SDS011;41718;51.980;5.734;2024-03-07T09:28:28;70.60;;;30.40;;
48789;SDS011;41718;51.980;5.734;2024-03-07T09:33:31;54.60;;;23.15;;
48789;SDS011;41718;51.980;5.734;2024-03-07T09:38:33;31.55;;;18.80;;
48789;SDS011;41718;51.980;5.734;2024-03-07T09:43:35;27.38;;;14.55;;
48789;SDS011;41718;51.980;5.734;2024-03-07T09:48:38;22.15;;;12.50;;
48789;SDS011;41718;51.980;5.734;2024-03-07T09:53:40;23.58;;;13.13;;
48789;SDS011;41718;51.980;5.734;2024-03-07T09:58:43;21.52;;;11.13;;
48789;SDS011;41718;51.980;5.734;2024-03-07T10:03:55;20.30;;;13.43;;
48789;SDS011;41718;51.980;5.734;2024-03-07T10:09:04;20.10;;;12.57;;
48789;SDS011;41718;51.980;5.734;2024-03-07T10:14:11;20.42;;;12.00;;
48789;SDS011;41718;51.980;5.734;2024-03-07T10:19:13;25.98;;;13.50;;
48789;SDS011;41718;51.980;5.734;2024-03-07T10:24:15;20.48;;;11.40;;
48789;SDS011;41718;51.980;5.734;2024-03-07T10:29:18;25.85;;;12.52;;
48789;SDS011;41718;51.980;5.734;2024-03-07T10:34:20;24.17;;;11.95;;
48789;SDS011;41718;51.980;5.734;2024-03-07T10:39:25;18.48;;;11.25;;
48789;SDS011;41718;51.980;5.734;2024-03-07T10:44:27;24.17;;;13.10;;
48789;SDS011;41718;51.980;5.734;2024-03-07T10:49:31;24.92;;;14.52;;
48789;SDS011;41718;51.980;5.734;2024-03-07T10:54:44;22.98;;;13.10;;
48789;SDS011;41718;51.980;5.734;2024-03-07T11:00:15;21.23;;;12.40;;
48789;SDS011;41718;51.980;5.734;2024-03-07T11:05:38;18.35;;;11.75;;
48789;SDS011;41718;51.980;5.734;2024-03-07T11:10:41;21.80;;;12.20;;
48789;SDS011;41718;51.980;5.734;2024-03-07T11:15:45;20.67;;;12.65;;
48789;SDS011;41718;51.980;5.734;2024-03-07T11:20:49;22.52;;;12.60;;
48789;SDS011;41718;51.980;5.734;2024-03-07T11:25:54;22.92;;;12.73;;
48789;SDS011;41718;51.980;5.734;2024-03-07T11:36:44;19.98;;;12.43;;
48789;SDS011;41718;51.980;5.734;2024-03-07T11:41:47;20.42;;;10.88;;
48789;SDS011;41718;51.980;5.734;2024-03-07T11:46:50;18.17;;;11.82;;
48789;SDS011;41718;51.980;5.734;2024-03-07T11:51:52;19.42;;;12.10;;
48789;SDS011;41718;51.980;5.734;2024-03-07T11:56:55;20.00;;;11.05;;
48789;SDS011;41718;51.980;5.734;2024-03-07T12:01:58;18.92;;;10.60;;
48789;SDS011;41718;51.980;5.734;2024-03-07T12:07:02;18.35;;;10.82;;
48789;SDS011;41718;51.980;5.734;2024-03-07T12:12:07;23.15;;;11.90;;
48789;SDS011;41718;51.980;5.734;2024-03-07T12:17:10;19.40;;;10.73;;
48789;SDS011;41718;51.980;5.734;2024-03-07T12:22:13;19.13;;;11.10;;
48789;SDS011;41718;51.980;5.734;2024-03-07T12:27:40;17.92;;;11.60;;
48789;SDS011;41718;51.980;5.734;2024-03-07T12:32:48;17.35;;;10.60;;
48789;SDS011;41718;51.980;5.734;2024-03-07T12:37:51;13.77;;;8.52;;
48789;SDS011;41718;51.980;5.734;2024-03-07T12:42:55;17.50;;;10.07;;
48789;SDS011;41718;51.980;5.734;2024-03-07T12:47:57;15.35;;;9.82;;
48789;SDS011;41718;51.980;5.734;2024-03-07T12:53:06;17.35;;;10.65;;
48789;SDS011;41718;51.980;5.734;2024-03-07T12:58:13;15.40;;;10.10;;
48789;SDS011;41718;51.980;5.734;2024-03-07T13:03:16;15.38;;;10.93;;
48789;SDS011;41718;51.980;5.734;2024-03-07T13:08:18;17.70;;;11.18;;
48789;SDS011;41718;51.980;5.734;2024-03-07T13:13:20;17.55;;;11.32;;
48789;SDS011;41718;51.980;5.734;2024-03-07T13:18:27;18.00;;;11.10;;
48789;SDS011;41718;51.980;5.734;2024-03-07T13:23:38;12.48;;;9.55;;
48789;SDS011;41718;51.980;5.734;2024-03-07T13:28:44;19.42;;;11.52;;
48789;SDS011;41718;51.980;5.734;2024-03-07T13:33:49;16.60;;;11.63;;
48789;SDS011;41718;51.980;5.734;2024-03-07T13:38:53;17.13;;;10.57;;
48789;SDS011;41718;51.980;5.734;2024-03-07T13:44:08;16.85;;;11.27;;
48789;SDS011;41718;51.980;5.734;2024-03-07T13:49:11;17.38;;;10.73;;
48789;SDS011;41718;51.980;5.734;2024-03-07T13:54:19;16.88;;;10.13;;
48789;SDS011;41718;51.980;5.734;2024-03-07T14:05:39;14.65;;;10.13;;
48789;SDS011;41718;51.980;5.734;2024-03-07T14:16:43;19.63;;;10.93;;
48789;SDS011;41718;51.980;5.734;2024-03-07T14:34:32;15.60;;;9.95;;
48789;SDS011;41718;51.980;5.734;2024-03-07T14:40:19;13.23;;;9.27;;
48789;SDS011;41718;51.980;5.734;2024-03-07T14:45:30;13.13;;;9.63;;
48789;SDS011;41718;51.980;5.734;2024-03-07T14:50:51;14.35;;;9.25;;
48789;SDS011;41718;51.980;5.734;2024-03-07T14:56:15;15.52;;;10.38;;
48789;SDS011;41718;51.980;5.734;2024-03-07T15:01:22;23.63;;;11.18;;
48789;SDS011;41718;51.980;5.734;2024-03-07T15:06:28;14.93;;;9.02;;
48789;SDS011;41718;51.980;5.734;2024-03-07T15:11:34;15.00;;;9.80;;
48789;SDS011;41718;51.980;5.734;2024-03-07T15:16:48;14.85;;;9.55;;
48789;SDS011;41718;51.980;5.734;2024-03-07T15:21:53;17.70;;;9.95;;
48789;SDS011;41718;51.980;5.734;2024-03-07T15:26:55;18.75;;;10.23;;
48789;SDS011;41718;51.980;5.734;2024-03-07T15:32:17;15.93;;;10.30;;
48789;SDS011;41718;51.980;5.734;2024-03-07T15:37:23;17.05;;;11.88;;
48789;SDS011;41718;51.980;5.734;2024-03-07T15:42:27;21.02;;;10.52;;
48789;SDS011;41718;51.980;5.734;2024-03-07T15:52:43;15.70;;;10.00;;
48789;SDS011;41718;51.980;5.734;2024-03-07T15:57:53;20.23;;;11.23;;
48789;SDS011;41718;51.980;5.734;2024-03-07T16:03:04;21.63;;;12.05;;
48789;SDS011;41718;51.980;5.734;2024-03-07T16:08:15;17.55;;;11.73;;
48789;SDS011;41718;51.980;5.734;2024-03-07T16:13:20;20.77;;;11.57;;
48789;SDS011;41718;51.980;5.734;2024-03-07T16:18:40;19.23;;;10.48;;
48789;SDS011;41718;51.980;5.734;2024-03-07T16:23:46;16.73;;;10.45;;
48789;SDS011;41718;51.980;5.734;2024-03-07T16:28:54;18.90;;;10.68;;
48789;SDS011;41718;51.980;5.734;2024-03-07T16:34:01;19.73;;;10.45;;
48789;SDS011;41718;51.980;5.734;2024-03-07T16:39:04;18.83;;;10.77;;
48789;SDS011;41718;51.980;5.734;2024-03-07T16:44:16;18.70;;;12.00;;
48789;SDS011;41718;51.980;5.734;2024-03-07T16:49:24;21.55;;;11.35;;
48789;SDS011;41718;51.980;5.734;2024-03-07T16:54:27;20.02;;;11.52;;
48789;SDS011;41718;51.980;5.734;2024-03-07T16:59:33;18.85;;;10.68;;
48789;SDS011;41718;51.980;5.734;2024-03-07T17:04:50;20.70;;;10.95;;
48789;SDS011;41718;51.980;5.734;2024-03-07T17:09:53;21.55;;;13.13;;
48789;SDS011;41718;51.980;5.734;2024-03-07T17:14:55;22.80;;;13.38;;
48789;SDS011;41718;51.980;5.734;2024-03-07T17:20:00;25.15;;;11.48;;
48789;SDS011;41718;51.980;5.734;2024-03-07T17:25:04;19.60;;;12.27;;
48789;SDS011;41718;51.980;5.734;2024-03-07T17:30:07;22.35;;;12.20;;
48789;SDS011;41718;51.980;5.734;2024-03-07T17:35:21;20.55;;;11.32;;
48789;SDS011;41718;51.980;5.734;2024-03-07T17:40:31;22.38;;;12.38;;
48789;SDS011;41718;51.980;5.734;2024-03-07T17:45:37;22.10;;;10.43;;
48789;SDS011;41718;51.980;5.734;2024-03-07T17:50:44;19.23;;;10.50;;
48789;SDS011;41718;51.980;5.734;2024-03-07T17:55:46;22.20;;;10.63;;
48789;SDS011;41718;51.980;5.734;2024-03-07T18:00:48;25.42;;;13.00;;
48789;SDS011;41718;51.980;5.734;2024-03-07T18:05:54;25.77;;;11.63;;
48789;SDS011;41718;51.980;5.734;2024-03-07T18:10:58;27.25;;;13.90;;
48789;SDS011;41718;51.980;5.734;2024-03-07T18:16:02;22.35;;;12.70;;
48789;SDS011;41718;51.980;5.734;2024-03-07T18:21:04;24.40;;;13.68;;
48789;SDS011;41718;51.980;5.734;2024-03-07T18:26:07;28.45;;;14.00;;
48789;SDS011;41718;51.980;5.734;2024-03-07T18:31:09;23.45;;;12.20;;
48789;SDS011;41718;51.980;5.734;2024-03-07T18:36:16;26.63;;;12.90;;
48789;SDS011;41718;51.980;5.734;2024-03-07T18:41:22;26.67;;;12.55;;
48789;SDS011;41718;51.980;5.734;2024-03-07T18:46:24;24.80;;;14.68;;
48789;SDS011;41718;51.980;5.734;2024-03-07T18:51:26;27.75;;;14.23;;
48789;SDS011;41718;51.980;5.734;2024-03-07T18:56:30;26.33;;;14.20;;
48789;SDS011;41718;51.980;5.734;2024-03-07T19:01:32;29.35;;;13.30;;
48789;SDS011;41718;51.980;5.734;2024-03-07T19:06:39;29.80;;;16.00;;
48789;SDS011;41718;51.980;5.734;2024-03-07T19:11:43;29.90;;;14.05;;
48789;SDS011;41718;51.980;5.734;2024-03-07T19:16:47;31.65;;;14.80;;
48789;SDS011;41718;51.980;5.734;2024-03-07T19:21:53;30.95;;;15.75;;
48789;SDS011;41718;51.980;5.734;2024-03-07T19:26:55;26.05;;;12.95;;
48789;SDS011;41718;51.980;5.734;2024-03-07T19:31:57;31.35;;;15.15;;
48789;SDS011;41718;51.980;5.734;2024-03-07T19:36:59;26.42;;;13.70;;
48789;SDS011;41718;51.980;5.734;2024-03-07T19:42:01;34.72;;;16.08;;
48789;SDS011;41718;51.980;5.734;2024-03-07T19:47:10;26.08;;;14.95;;
48789;SDS011;41718;51.980;5.734;2024-03-07T19:52:14;37.92;;;17.05;;
48789;SDS011;41718;51.980;5.734;2024-03-07T19:57:17;33.05;;;16.23;;
48789;SDS011;41718;51.980;5.734;2024-03-07T20:02:20;25.38;;;14.75;;
48789;SDS011;41718;51.980;5.734;2024-03-07T20:07:22;27.70;;;13.93;;
48789;SDS011;41718;51.980;5.734;2024-03-07T20:12:25;23.98;;;12.95;;
48789;SDS011;41718;51.980;5.734;2024-03-07T20:17:27;34.50;;;16.00;;
48789;SDS011;41718;51.980;5.734;2024-03-07T20:22:30;31.88;;;14.30;;
48789;SDS011;41718;51.980;5.734;2024-03-07T20:27:32;29.30;;;14.98;;
48789;SDS011;41718;51.980;5.734;2024-03-07T20:32:36;27.50;;;16.70;;
48789;SDS011;41718;51.980;5.734;2024-03-07T20:37:40;31.73;;;14.70;;
48789;SDS011;41718;51.980;5.734;2024-03-07T20:42:52;37.03;;;13.98;;
48789;SDS011;41718;51.980;5.734;2024-03-07T20:47:55;36.17;;;15.35;;
48789;SDS011;41718;51.980;5.734;2024-03-07T20:53:04;33.45;;;15.98;;
48789;SDS011;41718;51.980;5.734;2024-03-07T20:58:06;33.17;;;15.10;;
48789;SDS011;41718;51.980;5.734;2024-03-07T21:03:11;31.30;;;15.10;;
48789;SDS011;41718;51.980;5.734;2024-03-07T21:08:43;31.05;;;13.55;;
48789;SDS011;41718;51.980;5.734;2024-03-07T21:13:45;30.90;;;16.27;;
48789;SDS011;41718;51.980;5.734;2024-03-07T21:18:48;35.40;;;15.75;;
48789;SDS011;41718;51.980;5.734;2024-03-07T21:23:57;26.40;;;14.70;;
48789;SDS011;41718;51.980;5.734;2024-03-07T21:29:01;32.05;;;15.45;;
48789;SDS011;41718;51.980;5.734;2024-03-07T21:34:06;39.50;;;17.67;;
48789;SDS011;41718;51.980;5.734;2024-03-07T21:39:12;24.92;;;14.10;;
48789;SDS011;41718;51.980;5.734;2024-03-07T21:44:16;31.33;;;13.35;;
48789;SDS011;41718;51.980;5.734;2024-03-07T21:49:24;27.42;;;14.23;;
48789;SDS011;41718;51.980;5.734;2024-03-07T21:54:28;30.38;;;15.57;;
48789;SDS011;41718;51.980;5.734;2024-03-07T21:59:32;33.03;;;15.55;;
48789;SDS011;41718;51.980;5.734;2024-03-07T22:04:43;28.38;;;15.25;;
48789;SDS011;41718;51.980;5.734;2024-03-07T22:09:54;33.97;;;16.08;;
48789;SDS011;41718;51.980;5.734;2024-03-07T22:15:03;31.17;;;15.43;;
48789;SDS011;41718;51.980;5.734;2024-03-07T22:20:15;29.20;;;15.52;;
48789;SDS011;41718;51.980;5.734;2024-03-07T22:25:23;32.25;;;15.60;;
48789;SDS011;41718;51.980;5.734;2024-03-07T22:30:30;29.60;;;15.93;;
48789;SDS011;41718;51.980;5.734;2024-03-07T22:35:35;33.90;;;16.35;;
48789;SDS011;41718;51.980;5.734;2024-03-07T22:40:48;25.58;;;14.07;;
48789;SDS011;41718;51.980;5.734;2024-03-07T22:46:03;29.23;;;14.45;;
48789;SDS011;41718;51.980;5.734;2024-03-07T22:51:08;34.05;;;16.48;;
48789;SDS011;41718;51.980;5.734;2024-03-07T22:56:12;38.40;;;18.00;;
48789;SDS011;41718;51.980;5.734;2024-03-07T23:01:28;34.60;;;15.90;;
48789;SDS011;41718;51.980;5.734;2024-03-07T23:06:36;26.52;;;14.57;;
48789;SDS011;41718;51.980;5.734;2024-03-07T23:11:41;30.48;;;16.67;;
48789;SDS011;41718;51.980;5.734;2024-03-07T23:16:44;27.77;;;14.05;;
48789;SDS011;41718;51.980;5.734;2024-03-07T23:21:49;29.38;;;15.32;;
48789;SDS011;41718;51.980;5.734;2024-03-07T23:26:55;36.55;;;16.38;;
48789;SDS011;41718;51.980;5.734;2024-03-07T23:31:57;29.05;;;13.95;;
48789;SDS011;41718;51.980;5.734;2024-03-07T23:37:03;30.05;;;14.77;;
48789;SDS011;41718;51.980;5.734;2024-03-07T23:42:07;30.25;;;15.80;;
48789;SDS011;41718;51.980;5.734;2024-03-07T23:47:11;29.70;;;15.38;;
48789;SDS011;41718;51.980;5.734;2024-03-07T23:52:16;28.67;;;15.27;;
48789;SDS011;41718;51.980;5.734;2024-03-07T23:57:22;25.67;;;14.00;;
